sensor_id;sensor_type;location;lat;lon;timestamp;P1;durP1;ratioP1;P2;durP2;ratioP2
23990;SDS011;12205;50.600;4.608;2022-08-04T00:01:56;35.13;;;9.90;;
23990;SDS011;12205;50.600;4.608;2022-08-04T00:04:35;31.30;;;7.25;;
23990;SDS011;12205;50.600;4.608;2022-08-04T00:07:15;25.90;;;7.10;;
23990;SDS011;12205;50.600;4.608;2022-08-04T00:09:53;28.17;;;6.50;;
23990;SDS011;12205;50.600;4.608;2022-08-04T00:12:26;21.67;;;5.53;;
23990;SDS011;12205;50.600;4.608;2022-08-04T00:14:59;28.20;;;6.30;;
23990;SDS011;12205;50.600;4.608;2022-08-04T00:17:30;24.83;;;6.07;;
23990;SDS011;12205;50.600;4.608;2022-08-04T00:20:05;25.25;;;5.97;;
23990;SDS011;12205;50.600;4.608;2022-08-04T00:22:35;27.65;;;6.38;;
23990;SDS011;12205;50.600;4.608;2022-08-04T00:25:10;28.92;;;6.82;;
23990;SDS011;12205;50.600;4.608;2022-08-04T00:27:37;25.23;;;6.05;;
23990;SDS011;12205;50.600;4.608;2022-08-04T00:30:07;19.50;;;4.72;;
23990;SDS011;12205;50.600;4.608;2022-08-04T00:32:35;19.10;;;4.95;;
23990;SDS011;12205;50.600;4.608;2022-08-04T00:35:06;40.30;;;11.10;;
23990;SDS011;12205;50.600;4.608;2022-08-04T00:37:36;27.20;;;6.88;;
23990;SDS011;12205;50.600;4.608;2022-08-04T00:40:06;27.55;;;7.43;;
23990;SDS011;12205;50.600;4.608;2022-08-04T00:42:48;40.10;;;8.57;;
23990;SDS011;12205;50.600;4.608;2022-08-04T00:45:43;33.70;;;8.80;;
23990;SDS011;12205;50.600;4.608;2022-08-04T00:48:36;29.00;;;6.65;;
23990;SDS011;12205;50.600;4.608;2022-08-04T00:51:29;44.50;;;12.35;;
23990;SDS011;12205;50.600;4.608;2022-08-04T00:54:19;27.20;;;6.32;;
23990;SDS011;12205;50.600;4.608;2022-08-04T00:57:02;49.50;;;13.90;;
23990;SDS011;12205;50.600;4.608;2022-08-04T00:59:52;33.23;;;8.23;;
23990;SDS011;12205;50.600;4.608;2022-08-04T01:02:36;45.25;;;12.00;;
23990;SDS011;12205;50.600;4.608;2022-08-04T01:05:20;22.58;;;5.07;;
23990;SDS011;12205;50.600;4.608;2022-08-04T01:08:10;48.13;;;13.23;;
23990;SDS011;12205;50.600;4.608;2022-08-04T01:11:08;28.88;;;6.88;;
23990;SDS011;12205;50.600;4.608;2022-08-04T01:13:55;25.35;;;6.32;;
23990;SDS011;12205;50.600;4.608;2022-08-04T01:16:44;24.95;;;5.55;;
23990;SDS011;12205;50.600;4.608;2022-08-04T01:19:25;38.95;;;9.98;;
23990;SDS011;12205;50.600;4.608;2022-08-04T01:22:33;26.42;;;7.00;;
23990;SDS011;12205;50.600;4.608;2022-08-04T01:25:46;29.17;;;7.68;;
23990;SDS011;12205;50.600;4.608;2022-08-04T01:28:39;29.13;;;7.22;;
23990;SDS011;12205;50.600;4.608;2022-08-04T01:31:49;34.40;;;8.38;;
23990;SDS011;12205;50.600;4.608;2022-08-04T01:34:32;21.50;;;5.55;;
23990;SDS011;12205;50.600;4.608;2022-08-04T01:37:21;26.02;;;6.70;;
23990;SDS011;12205;50.600;4.608;2022-08-04T01:40:07;28.20;;;7.32;;
23990;SDS011;12205;50.600;4.608;2022-08-04T01:42:38;28.70;;;7.50;;
23990;SDS011;12205;50.600;4.608;2022-08-04T01:45:11;25.10;;;5.70;;
23990;SDS011;12205;50.600;4.608;2022-08-04T01:47:41;29.80;;;8.07;;
23990;SDS011;12205;50.600;4.608;2022-08-04T01:50:14;30.65;;;8.30;;
23990;SDS011;12205;50.600;4.608;2022-08-04T01:52:42;36.40;;;8.23;;
23990;SDS011;12205;50.600;4.608;2022-08-04T01:55:11;28.23;;;6.85;;
23990;SDS011;12205;50.600;4.608;2022-08-04T01:57:42;46.42;;;13.05;;
23990;SDS011;12205;50.600;4.608;2022-08-04T02:00:18;27.90;;;6.35;;
23990;SDS011;12205;50.600;4.608;2022-08-04T02:02:52;40.90;;;11.40;;
23990;SDS011;12205;50.600;4.608;2022-08-04T02:05:21;29.00;;;7.30;;
23990;SDS011;12205;50.600;4.608;2022-08-04T02:08:01;23.80;;;6.20;;
23990;SDS011;12205;50.600;4.608;2022-08-04T02:10:49;37.08;;;8.77;;
23990;SDS011;12205;50.600;4.608;2022-08-04T02:13:30;32.47;;;7.90;;
23990;SDS011;12205;50.600;4.608;2022-08-04T02:16:12;28.80;;;7.50;;
23990;SDS011;12205;50.600;4.608;2022-08-04T02:18:55;22.55;;;5.40;;
23990;SDS011;12205;50.600;4.608;2022-08-04T02:21:30;27.50;;;7.13;;
23990;SDS011;12205;50.600;4.608;2022-08-04T02:24:00;35.65;;;8.82;;
23990;SDS011;12205;50.600;4.608;2022-08-04T02:26:32;33.22;;;7.88;;
23990;SDS011;12205;50.600;4.608;2022-08-04T02:29:03;35.65;;;7.80;;
23990;SDS011;12205;50.600;4.608;2022-08-04T02:31:45;36.50;;;8.68;;
23990;SDS011;12205;50.600;4.608;2022-08-04T02:34:23;34.57;;;7.60;;
23990;SDS011;12205;50.600;4.608;2022-08-04T02:36:54;31.10;;;8.10;;
23990;SDS011;12205;50.600;4.608;2022-08-04T02:39:25;36.25;;;7.57;;
23990;SDS011;12205;50.600;4.608;2022-08-04T02:42:03;36.55;;;8.52;;
23990;SDS011;12205;50.600;4.608;2022-08-04T02:44:31;34.85;;;7.82;;
23990;SDS011;12205;50.600;4.608;2022-08-04T02:47:03;44.03;;;12.25;;
23990;SDS011;12205;50.600;4.608;2022-08-04T02:49:34;33.85;;;8.70;;
23990;SDS011;12205;50.600;4.608;2022-08-04T02:52:03;31.88;;;8.50;;
23990;SDS011;12205;50.600;4.608;2022-08-04T02:54:37;38.35;;;9.13;;
23990;SDS011;12205;50.600;4.608;2022-08-04T02:57:07;28.20;;;7.18;;
23990;SDS011;12205;50.600;4.608;2022-08-04T02:59:40;30.67;;;7.63;;
23990;SDS011;12205;50.600;4.608;2022-08-04T03:02:32;28.80;;;6.85;;
23990;SDS011;12205;50.600;4.608;2022-08-04T03:05:17;27.48;;;6.93;;
23990;SDS011;12205;50.600;4.608;2022-08-04T03:07:55;23.50;;;6.10;;
23990;SDS011;12205;50.600;4.608;2022-08-04T03:11:23;25.17;;;6.55;;
23990;SDS011;12205;50.600;4.608;2022-08-04T03:55:26;19.95;;;5.22;;
23990;SDS011;12205;50.600;4.608;2022-08-04T04:01:59;23.67;;;5.68;;
23990;SDS011;12205;50.600;4.608;2022-08-04T04:05:10;21.23;;;5.57;;
23990;SDS011;12205;50.600;4.608;2022-08-04T04:31:33;37.83;;;10.13;;
23990;SDS011;12205;50.600;4.608;2022-08-04T04:34:37;20.58;;;5.15;;
23990;SDS011;12205;50.600;4.608;2022-08-04T04:37:36;22.50;;;4.95;;
23990;SDS011;12205;50.600;4.608;2022-08-04T04:40:27;15.93;;;3.83;;
23990;SDS011;12205;50.600;4.608;2022-08-04T04:43:18;23.27;;;5.35;;
23990;SDS011;12205;50.600;4.608;2022-08-04T04:46:20;26.02;;;5.60;;
23990;SDS011;12205;50.600;4.608;2022-08-04T04:49:01;18.35;;;4.70;;
23990;SDS011;12205;50.600;4.608;2022-08-04T04:51:47;23.83;;;4.88;;
23990;SDS011;12205;50.600;4.608;2022-08-04T04:54:23;22.92;;;4.45;;
23990;SDS011;12205;50.600;4.608;2022-08-04T04:57:00;35.03;;;6.15;;
23990;SDS011;12205;50.600;4.608;2022-08-04T04:59:40;25.88;;;6.13;;
23990;SDS011;12205;50.600;4.608;2022-08-04T05:02:32;24.08;;;5.20;;
23990;SDS011;12205;50.600;4.608;2022-08-04T05:05:25;19.63;;;4.85;;
23990;SDS011;12205;50.600;4.608;2022-08-04T05:08:25;23.67;;;5.95;;
23990;SDS011;12205;50.600;4.608;2022-08-04T05:11:40;23.83;;;6.03;;
23990;SDS011;12205;50.600;4.608;2022-08-04T05:14:46;14.20;;;4.00;;
23990;SDS011;12205;50.600;4.608;2022-08-04T05:17:17;17.30;;;4.28;;
23990;SDS011;12205;50.600;4.608;2022-08-04T05:19:54;18.70;;;4.63;;
23990;SDS011;12205;50.600;4.608;2022-08-04T05:22:27;20.48;;;5.15;;
23990;SDS011;12205;50.600;4.608;2022-08-04T05:25:03;17.33;;;4.15;;
23990;SDS011;12205;50.600;4.608;2022-08-04T05:27:40;13.40;;;3.42;;
23990;SDS011;12205;50.600;4.608;2022-08-04T05:30:18;22.92;;;5.80;;
23990;SDS011;12205;50.600;4.608;2022-08-04T05:32:47;9.93;;;3.10;;
23990;SDS011;12205;50.600;4.608;2022-08-04T05:35:25;29.13;;;6.13;;
23990;SDS011;12205;50.600;4.608;2022-08-04T05:37:58;25.73;;;5.60;;
23990;SDS011;12205;50.600;4.608;2022-08-04T05:40:28;26.90;;;5.82;;
23990;SDS011;12205;50.600;4.608;2022-08-04T05:42:56;36.20;;;9.40;;
23990;SDS011;12205;50.600;4.608;2022-08-04T05:45:27;19.67;;;5.45;;
23990;SDS011;12205;50.600;4.608;2022-08-04T05:47:55;28.77;;;6.45;;
23990;SDS011;12205;50.600;4.608;2022-08-04T05:50:23;21.80;;;5.50;;
23990;SDS011;12205;50.600;4.608;2022-08-04T05:52:51;20.98;;;4.95;;
23990;SDS011;12205;50.600;4.608;2022-08-04T05:55:19;27.92;;;6.05;;
23990;SDS011;12205;50.600;4.608;2022-08-04T05:57:47;21.67;;;5.53;;
23990;SDS011;12205;50.600;4.608;2022-08-04T06:00:16;20.33;;;4.90;;
23990;SDS011;12205;50.600;4.608;2022-08-04T06:02:45;25.40;;;5.80;;
23990;SDS011;12205;50.600;4.608;2022-08-04T06:05:17;22.90;;;6.13;;
23990;SDS011;12205;50.600;4.608;2022-08-04T06:07:45;27.65;;;6.70;;
23990;SDS011;12205;50.600;4.608;2022-08-04T06:10:14;21.42;;;4.75;;
23990;SDS011;12205;50.600;4.608;2022-08-04T06:12:43;24.30;;;6.20;;
23990;SDS011;12205;50.600;4.608;2022-08-04T06:15:18;34.38;;;5.57;;
23990;SDS011;12205;50.600;4.608;2022-08-04T06:17:53;25.40;;;6.20;;
23990;SDS011;12205;50.600;4.608;2022-08-04T06:20:28;21.95;;;5.70;;
23990;SDS011;12205;50.600;4.608;2022-08-04T06:22:59;30.23;;;7.22;;
23990;SDS011;12205;50.600;4.608;2022-08-04T06:25:33;23.13;;;5.43;;
23990;SDS011;12205;50.600;4.608;2022-08-04T06:28:08;30.40;;;6.70;;
23990;SDS011;12205;50.600;4.608;2022-08-04T06:30:37;22.42;;;5.55;;
23990;SDS011;12205;50.600;4.608;2022-08-04T06:33:08;25.10;;;6.47;;
23990;SDS011;12205;50.600;4.608;2022-08-04T06:35:48;21.15;;;5.65;;
23990;SDS011;12205;50.600;4.608;2022-08-04T06:38:19;32.92;;;7.78;;
23990;SDS011;12205;50.600;4.608;2022-08-04T06:40:48;23.00;;;6.13;;
23990;SDS011;12205;50.600;4.608;2022-08-04T06:43:16;26.52;;;6.75;;
23990;SDS011;12205;50.600;4.608;2022-08-04T06:45:46;27.63;;;6.72;;
23990;SDS011;12205;50.600;4.608;2022-08-04T06:48:17;19.58;;;4.90;;
23990;SDS011;12205;50.600;4.608;2022-08-04T06:50:46;22.00;;;5.40;;
23990;SDS011;12205;50.600;4.608;2022-08-04T06:53:16;30.48;;;7.43;;
23990;SDS011;12205;50.600;4.608;2022-08-04T06:55:44;38.78;;;7.78;;
23990;SDS011;12205;50.600;4.608;2022-08-04T06:58:14;18.90;;;4.93;;
23990;SDS011;12205;50.600;4.608;2022-08-04T07:00:44;26.57;;;5.90;;
23990;SDS011;12205;50.600;4.608;2022-08-04T07:03:14;24.98;;;5.93;;
23990;SDS011;12205;50.600;4.608;2022-08-04T07:05:46;36.72;;;9.57;;
23990;SDS011;12205;50.600;4.608;2022-08-04T07:08:14;32.05;;;7.25;;
23990;SDS011;12205;50.600;4.608;2022-08-04T07:10:42;33.58;;;7.57;;
23990;SDS011;12205;50.600;4.608;2022-08-04T07:13:11;23.52;;;5.43;;
23990;SDS011;12205;50.600;4.608;2022-08-04T07:15:40;38.83;;;8.73;;
23990;SDS011;12205;50.600;4.608;2022-08-04T07:18:10;24.60;;;5.60;;
23990;SDS011;12205;50.600;4.608;2022-08-04T07:20:40;25.13;;;5.45;;
23990;SDS011;12205;50.600;4.608;2022-08-04T07:25:41;23.73;;;5.18;;
23990;SDS011;12205;50.600;4.608;2022-08-04T07:28:15;27.98;;;6.43;;
23990;SDS011;12205;50.600;4.608;2022-08-04T07:30:43;20.75;;;5.07;;
23990;SDS011;12205;50.600;4.608;2022-08-04T07:33:12;34.80;;;8.88;;
23990;SDS011;12205;50.600;4.608;2022-08-04T07:35:42;21.15;;;4.65;;
23990;SDS011;12205;50.600;4.608;2022-08-04T07:38:12;31.98;;;6.57;;
23990;SDS011;12205;50.600;4.608;2022-08-04T07:40:40;22.92;;;4.97;;
23990;SDS011;12205;50.600;4.608;2022-08-04T07:43:07;24.63;;;5.45;;
23990;SDS011;12205;50.600;4.608;2022-08-04T07:45:34;34.03;;;7.43;;
23990;SDS011;12205;50.600;4.608;2022-08-04T07:48:03;31.30;;;6.40;;
23990;SDS011;12205;50.600;4.608;2022-08-04T07:50:31;31.60;;;7.03;;
23990;SDS011;12205;50.600;4.608;2022-08-04T07:53:01;23.23;;;5.60;;
23990;SDS011;12205;50.600;4.608;2022-08-04T07:55:28;24.42;;;5.20;;
23990;SDS011;12205;50.600;4.608;2022-08-04T07:57:56;33.45;;;7.43;;
23990;SDS011;12205;50.600;4.608;2022-08-04T08:00:24;27.63;;;7.22;;
23990;SDS011;12205;50.600;4.608;2022-08-04T08:02:51;24.20;;;5.45;;
23990;SDS011;12205;50.600;4.608;2022-08-04T08:05:21;25.58;;;5.13;;
23990;SDS011;12205;50.600;4.608;2022-08-04T08:07:49;17.85;;;3.92;;
23990;SDS011;12205;50.600;4.608;2022-08-04T08:10:18;21.95;;;4.63;;
23990;SDS011;12205;50.600;4.608;2022-08-04T08:12:46;28.63;;;6.22;;
23990;SDS011;12205;50.600;4.608;2022-08-04T08:15:15;16.73;;;4.25;;
23990;SDS011;12205;50.600;4.608;2022-08-04T08:17:44;23.48;;;4.95;;
23990;SDS011;12205;50.600;4.608;2022-08-04T08:20:11;22.15;;;4.60;;
23990;SDS011;12205;50.600;4.608;2022-08-04T08:22:39;35.85;;;8.70;;
23990;SDS011;12205;50.600;4.608;2022-08-04T08:25:06;22.33;;;5.30;;
23990;SDS011;12205;50.600;4.608;2022-08-04T08:27:37;34.25;;;6.50;;
23990;SDS011;12205;50.600;4.608;2022-08-04T08:30:04;28.60;;;5.50;;
23990;SDS011;12205;50.600;4.608;2022-08-04T08:32:33;23.13;;;5.05;;
23990;SDS011;12205;50.600;4.608;2022-08-04T08:35:00;25.80;;;5.70;;
23990;SDS011;12205;50.600;4.608;2022-08-04T08:37:29;18.02;;;3.67;;
23990;SDS011;12205;50.600;4.608;2022-08-04T08:40:13;21.98;;;4.95;;
23990;SDS011;12205;50.600;4.608;2022-08-04T08:49:11;20.83;;;4.90;;
23990;SDS011;12205;50.600;4.608;2022-08-04T08:52:18;26.67;;;5.65;;
23990;SDS011;12205;50.600;4.608;2022-08-04T08:55:05;16.20;;;3.72;;
23990;SDS011;12205;50.600;4.608;2022-08-04T08:57:58;25.90;;;5.07;;
23990;SDS011;12205;50.600;4.608;2022-08-04T09:01:01;33.60;;;8.10;;
23990;SDS011;12205;50.600;4.608;2022-08-04T09:03:45;29.85;;;5.97;;
23990;SDS011;12205;50.600;4.608;2022-08-04T09:06:50;37.47;;;8.18;;
23990;SDS011;12205;50.600;4.608;2022-08-04T09:09:39;25.60;;;5.47;;
23990;SDS011;12205;50.600;4.608;2022-08-04T09:12:32;26.52;;;5.18;;
23990;SDS011;12205;50.600;4.608;2022-08-04T09:15:21;25.52;;;5.53;;
23990;SDS011;12205;50.600;4.608;2022-08-04T09:18:01;25.43;;;5.77;;
23990;SDS011;12205;50.600;4.608;2022-08-04T09:20:36;23.70;;;4.60;;
23990;SDS011;12205;50.600;4.608;2022-08-04T09:23:14;29.77;;;7.63;;
23990;SDS011;12205;50.600;4.608;2022-08-04T09:25:51;21.77;;;4.68;;
23990;SDS011;12205;50.600;4.608;2022-08-04T09:28:27;27.02;;;7.40;;
23990;SDS011;12205;50.600;4.608;2022-08-04T09:31:05;18.27;;;4.72;;
23990;SDS011;12205;50.600;4.608;2022-08-04T09:33:41;10.70;;;2.58;;
23990;SDS011;12205;50.600;4.608;2022-08-04T09:36:19;18.90;;;4.10;;
23990;SDS011;12205;50.600;4.608;2022-08-04T09:39:02;18.27;;;4.45;;
23990;SDS011;12205;50.600;4.608;2022-08-04T09:41:40;18.95;;;4.63;;
23990;SDS011;12205;50.600;4.608;2022-08-04T09:44:22;18.13;;;4.25;;
23990;SDS011;12205;50.600;4.608;2022-08-04T09:47:05;18.40;;;4.60;;
23990;SDS011;12205;50.600;4.608;2022-08-04T09:49:45;18.65;;;4.30;;
23990;SDS011;12205;50.600;4.608;2022-08-04T09:52:26;25.95;;;5.65;;
23990;SDS011;12205;50.600;4.608;2022-08-04T09:55:11;18.60;;;4.43;;
23990;SDS011;12205;50.600;4.608;2022-08-04T09:57:55;28.17;;;5.88;;
23990;SDS011;12205;50.600;4.608;2022-08-04T10:00:33;15.70;;;4.03;;
23990;SDS011;12205;50.600;4.608;2022-08-04T10:03:09;25.25;;;6.15;;
23990;SDS011;12205;50.600;4.608;2022-08-04T10:05:43;16.25;;;3.45;;
23990;SDS011;12205;50.600;4.608;2022-08-04T10:08:38;29.00;;;5.25;;
23990;SDS011;12205;50.600;4.608;2022-08-04T10:11:32;21.98;;;4.65;;
23990;SDS011;12205;50.600;4.608;2022-08-04T10:14:22;28.75;;;4.97;;
23990;SDS011;12205;50.600;4.608;2022-08-04T10:17:18;23.80;;;5.60;;
23990;SDS011;12205;50.600;4.608;2022-08-04T10:20:07;24.00;;;4.90;;
23990;SDS011;12205;50.600;4.608;2022-08-04T10:22:49;27.08;;;5.55;;
23990;SDS011;12205;50.600;4.608;2022-08-04T10:25:29;21.77;;;4.20;;
23990;SDS011;12205;50.600;4.608;2022-08-04T10:28:14;33.80;;;6.68;;
23990;SDS011;12205;50.600;4.608;2022-08-04T10:30:48;23.02;;;5.50;;
23990;SDS011;12205;50.600;4.608;2022-08-04T10:33:23;37.80;;;6.85;;
23990;SDS011;12205;50.600;4.608;2022-08-04T10:35:58;28.98;;;6.32;;
23990;SDS011;12205;50.600;4.608;2022-08-04T10:38:34;34.80;;;7.07;;
23990;SDS011;12205;50.600;4.608;2022-08-04T10:41:11;26.17;;;6.07;;
23990;SDS011;12205;50.600;4.608;2022-08-04T10:43:53;32.70;;;7.20;;
23990;SDS011;12205;50.600;4.608;2022-08-04T10:46:41;34.00;;;8.02;;
23990;SDS011;12205;50.600;4.608;2022-08-04T10:49:15;35.25;;;7.47;;
23990;SDS011;12205;50.600;4.608;2022-08-04T10:51:50;34.38;;;7.55;;
23990;SDS011;12205;50.600;4.608;2022-08-04T10:54:28;44.03;;;9.43;;
23990;SDS011;12205;50.600;4.608;2022-08-04T10:57:09;36.90;;;8.77;;
23990;SDS011;12205;50.600;4.608;2022-08-04T10:59:46;46.90;;;9.20;;
23990;SDS011;12205;50.600;4.608;2022-08-04T11:02:29;32.00;;;7.55;;
23990;SDS011;12205;50.600;4.608;2022-08-04T11:05:04;29.75;;;7.25;;
23990;SDS011;12205;50.600;4.608;2022-08-04T11:07:46;45.33;;;11.00;;
23990;SDS011;12205;50.600;4.608;2022-08-04T11:10:20;36.40;;;9.00;;
23990;SDS011;12205;50.600;4.608;2022-08-04T11:12:55;44.75;;;13.63;;
23990;SDS011;12205;50.600;4.608;2022-08-04T11:15:29;40.55;;;9.27;;
23990;SDS011;12205;50.600;4.608;2022-08-04T11:18:05;32.33;;;8.52;;
23990;SDS011;12205;50.600;4.608;2022-08-04T11:20:41;30.70;;;7.28;;
23990;SDS011;12205;50.600;4.608;2022-08-04T11:23:18;35.65;;;8.25;;
23990;SDS011;12205;50.600;4.608;2022-08-04T11:25:54;32.20;;;7.10;;
23990;SDS011;12205;50.600;4.608;2022-08-04T11:28:32;38.65;;;7.57;;
23990;SDS011;12205;50.600;4.608;2022-08-04T11:31:12;27.67;;;6.57;;
23990;SDS011;12205;50.600;4.608;2022-08-04T11:33:49;31.02;;;7.70;;
23990;SDS011;12205;50.600;4.608;2022-08-04T11:36:29;26.45;;;6.38;;
23990;SDS011;12205;50.600;4.608;2022-08-04T11:39:06;27.50;;;6.68;;
23990;SDS011;12205;50.600;4.608;2022-08-04T11:41:51;31.02;;;7.78;;
23990;SDS011;12205;50.600;4.608;2022-08-04T11:44:28;27.70;;;6.65;;
23990;SDS011;12205;50.600;4.608;2022-08-04T11:47:02;29.90;;;7.68;;
23990;SDS011;12205;50.600;4.608;2022-08-04T11:49:38;36.30;;;8.90;;
23990;SDS011;12205;50.600;4.608;2022-08-04T11:52:11;28.40;;;7.38;;
23990;SDS011;12205;50.600;4.608;2022-08-04T11:54:45;33.83;;;7.55;;
23990;SDS011;12205;50.600;4.608;2022-08-04T11:59:45;35.70;;;8.40;;
23990;SDS011;12205;50.600;4.608;2022-08-04T12:02:22;34.25;;;7.78;;
23990;SDS011;12205;50.600;4.608;2022-08-04T12:05:30;35.00;;;8.18;;
23990;SDS011;12205;50.600;4.608;2022-08-04T12:08:02;55.70;;;16.08;;
23990;SDS011;12205;50.600;4.608;2022-08-04T12:10:53;26.98;;;6.45;;
23990;SDS011;12205;50.600;4.608;2022-08-04T12:13:42;60.20;;;15.80;;
23990;SDS011;12205;50.600;4.608;2022-08-04T12:16:28;38.85;;;9.27;;
23990;SDS011;12205;50.600;4.608;2022-08-04T12:19:08;60.17;;;17.25;;
23990;SDS011;12205;50.600;4.608;2022-08-04T12:21:48;31.75;;;7.28;;
23990;SDS011;12205;50.600;4.608;2022-08-04T12:24:22;30.38;;;8.73;;
23990;SDS011;12205;50.600;4.608;2022-08-04T12:26:57;36.22;;;8.75;;
23990;SDS011;12205;50.600;4.608;2022-08-04T12:29:39;35.70;;;7.90;;
23990;SDS011;12205;50.600;4.608;2022-08-04T12:32:16;38.88;;;8.88;;
23990;SDS011;12205;50.600;4.608;2022-08-04T12:34:53;33.67;;;7.93;;
23990;SDS011;12205;50.600;4.608;2022-08-04T12:37:36;40.50;;;9.90;;
23990;SDS011;12205;50.600;4.608;2022-08-04T12:40:15;33.17;;;8.30;;
23990;SDS011;12205;50.600;4.608;2022-08-04T12:42:52;33.60;;;7.85;;
23990;SDS011;12205;50.600;4.608;2022-08-04T12:45:29;44.42;;;9.75;;
23990;SDS011;12205;50.600;4.608;2022-08-04T12:47:58;42.28;;;9.65;;
23990;SDS011;12205;50.600;4.608;2022-08-04T12:50:29;37.90;;;9.23;;
23990;SDS011;12205;50.600;4.608;2022-08-04T12:52:58;32.17;;;7.68;;
23990;SDS011;12205;50.600;4.608;2022-08-04T12:55:27;35.83;;;8.38;;
23990;SDS011;12205;50.600;4.608;2022-08-04T12:57:58;28.35;;;7.47;;
23990;SDS011;12205;50.600;4.608;2022-08-04T13:00:34;34.85;;;8.57;;
23990;SDS011;12205;50.600;4.608;2022-08-04T13:03:05;54.65;;;14.55;;
23990;SDS011;12205;50.600;4.608;2022-08-04T13:05:38;39.67;;;8.65;;
23990;SDS011;12205;50.600;4.608;2022-08-04T13:08:07;33.10;;;8.23;;
23990;SDS011;12205;50.600;4.608;2022-08-04T13:10:37;48.17;;;11.90;;
23990;SDS011;12205;50.600;4.608;2022-08-04T13:13:11;46.42;;;11.27;;
23990;SDS011;12205;50.600;4.608;2022-08-04T13:15:43;43.85;;;9.82;;
23990;SDS011;12205;50.600;4.608;2022-08-04T13:18:22;30.75;;;8.13;;
23990;SDS011;12205;50.600;4.608;2022-08-04T13:20:51;34.15;;;7.93;;
23990;SDS011;12205;50.600;4.608;2022-08-04T13:23:21;28.05;;;6.45;;
23990;SDS011;12205;50.600;4.608;2022-08-04T13:25:52;26.75;;;6.50;;
23990;SDS011;12205;50.600;4.608;2022-08-04T13:28:22;29.48;;;7.40;;
23990;SDS011;12205;50.600;4.608;2022-08-04T13:33:27;29.60;;;6.90;;
23990;SDS011;12205;50.600;4.608;2022-08-04T13:35:57;53.90;;;15.13;;
23990;SDS011;12205;50.600;4.608;2022-08-04T13:38:26;32.72;;;8.35;;
23990;SDS011;12205;50.600;4.608;2022-08-04T13:40:56;35.57;;;9.20;;
23990;SDS011;12205;50.600;4.608;2022-08-04T13:43:28;26.52;;;6.20;;
23990;SDS011;12205;50.600;4.608;2022-08-04T13:46:00;29.58;;;6.68;;
23990;SDS011;12205;50.600;4.608;2022-08-04T13:48:31;32.80;;;7.95;;
23990;SDS011;12205;50.600;4.608;2022-08-04T13:53:30;27.70;;;5.95;;
23990;SDS011;12205;50.600;4.608;2022-08-04T13:55:59;27.45;;;6.25;;
23990;SDS011;12205;50.600;4.608;2022-08-04T13:58:30;30.00;;;7.43;;
23990;SDS011;12205;50.600;4.608;2022-08-04T14:01:03;26.30;;;6.20;;
23990;SDS011;12205;50.600;4.608;2022-08-04T14:03:39;41.15;;;11.88;;
23990;SDS011;12205;50.600;4.608;2022-08-04T14:06:16;29.10;;;7.13;;
23990;SDS011;12205;50.600;4.608;2022-08-04T14:08:48;30.38;;;7.75;;
23990;SDS011;12205;50.600;4.608;2022-08-04T14:11:20;27.63;;;7.25;;
23990;SDS011;12205;50.600;4.608;2022-08-04T14:13:57;24.35;;;6.07;;
23990;SDS011;12205;50.600;4.608;2022-08-04T14:16:26;33.50;;;7.68;;
23990;SDS011;12205;50.600;4.608;2022-08-04T14:18:57;27.73;;;6.07;;
23990;SDS011;12205;50.600;4.608;2022-08-04T14:21:26;26.60;;;6.00;;
23990;SDS011;12205;50.600;4.608;2022-08-04T14:23:54;24.85;;;6.20;;
23990;SDS011;12205;50.600;4.608;2022-08-04T14:26:24;23.30;;;5.27;;
23990;SDS011;12205;50.600;4.608;2022-08-04T14:28:55;26.48;;;6.05;;
23990;SDS011;12205;50.600;4.608;2022-08-04T14:31:34;17.90;;;4.57;;
23990;SDS011;12205;50.600;4.608;2022-08-04T14:34:02;8.93;;;2.83;;
23990;SDS011;12205;50.600;4.608;2022-08-04T14:36:37;30.75;;;8.52;;
23990;SDS011;12205;50.600;4.608;2022-08-04T14:39:06;6.72;;;2.20;;
23990;SDS011;12205;50.600;4.608;2022-08-04T14:41:43;9.90;;;2.42;;
23990;SDS011;12205;50.600;4.608;2022-08-04T14:44:12;17.00;;;3.10;;
23990;SDS011;12205;50.600;4.608;2022-08-04T14:46:52;7.20;;;2.40;;
23990;SDS011;12205;50.600;4.608;2022-08-04T14:49:21;8.00;;;2.38;;
23990;SDS011;12205;50.600;4.608;2022-08-04T14:51:51;20.23;;;4.30;;
23990;SDS011;12205;50.600;4.608;2022-08-04T14:54:26;14.88;;;2.63;;
23990;SDS011;12205;50.600;4.608;2022-08-04T14:56:57;13.05;;;3.15;;
23990;SDS011;12205;50.600;4.608;2022-08-04T14:59:38;13.00;;;2.80;;
23990;SDS011;12205;50.600;4.608;2022-08-04T15:02:08;13.93;;;3.13;;
23990;SDS011;12205;50.600;4.608;2022-08-04T15:04:38;7.63;;;2.17;;
23990;SDS011;12205;50.600;4.608;2022-08-04T15:07:07;9.43;;;2.20;;
23990;SDS011;12205;50.600;4.608;2022-08-04T15:09:35;20.15;;;5.68;;
23990;SDS011;12205;50.600;4.608;2022-08-04T15:12:02;9.05;;;2.17;;
23990;SDS011;12205;50.600;4.608;2022-08-04T15:14:31;7.03;;;2.30;;
23990;SDS011;12205;50.600;4.608;2022-08-04T15:17:00;8.40;;;2.20;;
23990;SDS011;12205;50.600;4.608;2022-08-04T15:19:29;8.48;;;1.70;;
23990;SDS011;12205;50.600;4.608;2022-08-04T15:21:57;5.55;;;1.52;;
23990;SDS011;12205;50.600;4.608;2022-08-04T15:24:24;16.90;;;2.65;;
23990;SDS011;12205;50.600;4.608;2022-08-04T15:26:52;9.98;;;2.03;;
23990;SDS011;12205;50.600;4.608;2022-08-04T15:29:26;9.20;;;2.10;;
23990;SDS011;12205;50.600;4.608;2022-08-04T15:32:04;8.10;;;1.92;;
23990;SDS011;12205;50.600;4.608;2022-08-04T15:34:44;16.50;;;2.57;;
23990;SDS011;12205;50.600;4.608;2022-08-04T15:37:13;16.07;;;4.00;;
23990;SDS011;12205;50.600;4.608;2022-08-04T15:39:50;7.80;;;1.35;;
23990;SDS011;12205;50.600;4.608;2022-08-04T15:45:11;15.00;;;2.15;;
23990;SDS011;12205;50.600;4.608;2022-08-04T15:56:48;10.48;;;1.60;;
23990;SDS011;12205;50.600;4.608;2022-08-04T16:05:28;8.27;;;1.35;;
23990;SDS011;12205;50.600;4.608;2022-08-04T16:08:12;8.85;;;1.63;;
23990;SDS011;12205;50.600;4.608;2022-08-04T16:10:46;7.70;;;1.60;;
23990;SDS011;12205;50.600;4.608;2022-08-04T16:13:16;5.10;;;1.13;;
23990;SDS011;12205;50.600;4.608;2022-08-04T16:15:47;15.68;;;4.03;;
23990;SDS011;12205;50.600;4.608;2022-08-04T16:18:20;7.00;;;1.50;;
23990;SDS011;12205;50.600;4.608;2022-08-04T16:21:06;17.60;;;4.72;;
23990;SDS011;12205;50.600;4.608;2022-08-04T16:26:45;20.38;;;4.22;;
23990;SDS011;12205;50.600;4.608;2022-08-04T16:29:23;6.75;;;1.25;;
23990;SDS011;12205;50.600;4.608;2022-08-04T16:32:06;9.45;;;2.75;;
23990;SDS011;12205;50.600;4.608;2022-08-04T16:34:46;9.13;;;2.00;;
23990;SDS011;12205;50.600;4.608;2022-08-04T16:37:18;9.07;;;1.77;;
23990;SDS011;12205;50.600;4.608;2022-08-04T16:42:29;5.90;;;1.33;;
23990;SDS011;12205;50.600;4.608;2022-08-04T16:45:00;8.63;;;1.95;;
23990;SDS011;12205;50.600;4.608;2022-08-04T16:50:28;5.30;;;1.15;;
23990;SDS011;12205;50.600;4.608;2022-08-04T16:52:56;9.63;;;1.55;;
23990;SDS011;12205;50.600;4.608;2022-08-04T16:55:24;6.28;;;1.27;;
23990;SDS011;12205;50.600;4.608;2022-08-04T16:57:55;7.70;;;1.90;;
23990;SDS011;12205;50.600;4.608;2022-08-04T17:00:27;6.43;;;1.35;;
23990;SDS011;12205;50.600;4.608;2022-08-04T17:02:56;7.35;;;1.77;;
23990;SDS011;12205;50.600;4.608;2022-08-04T17:05:28;9.85;;;2.28;;
23990;SDS011;12205;50.600;4.608;2022-08-04T17:07:56;6.63;;;1.70;;
23990;SDS011;12205;50.600;4.608;2022-08-04T17:10:33;13.45;;;3.88;;
23990;SDS011;12205;50.600;4.608;2022-08-04T17:13:24;7.78;;;1.70;;
23990;SDS011;12205;50.600;4.608;2022-08-04T17:15:55;13.35;;;2.92;;
23990;SDS011;12205;50.600;4.608;2022-08-04T17:18:25;9.25;;;1.75;;
23990;SDS011;12205;50.600;4.608;2022-08-04T17:20:56;6.72;;;1.75;;
23990;SDS011;12205;50.600;4.608;2022-08-04T17:23:32;4.80;;;1.48;;